Time;durP1;ratioP1;P1;durP2;ratioP2;P2;SDS_P1;SDS_P2;PMS_P1;PMS_P2;Temp;Humidity;BMP_temperature;BMP_pressure;BME280_temperature;BME280_humidity;BME280_pressure;Samples;Min_cycle;Max_cycle;Signal;HPM_P1;HPM_P2
2022/01/15 00:00:53;;;;;;;8.10;6.57;;;21.90;32.60;;;;;;5044132;28;20116;-47
2022/01/15 00:03:19;;;;;;;7.88;6.78;;;21.90;32.70;;;;;;5037658;28;20124;-56
2022/01/15 00:05:45;;;;;;;8.10;6.95;;;21.90;32.70;;;;;;5052879;28;20423;-53
2022/01/15 00:08:11;;;;;;;7.65;6.30;;;21.90;33.30;;;;;;5038077;28;20555;-52
2022/01/15 00:10:37;;;;;;;8.20;6.25;;;21.90;32.70;;;;;;5042318;28;20021;-53
2022/01/15 00:13:07;;;;;;;7.40;6.55;;;21.90;32.70;;;;;;5044765;28;20036;-53
2022/01/15 00:15:41;;;;;;;7.97;6.30;;;21.90;32.70;;;;;;5042146;28;20443;-49
2022/01/15 00:18:15;;;;;;;7.07;6.00;;;21.90;32.70;;;;;;5053729;28;20450;-54
2022/01/15 00:20:42;;;;;;;7.05;6.20;;;21.90;32.80;;;;;;5054705;28;20036;-53
2022/01/15 00:23:08;;;;;;;6.53;5.70;;;21.80;32.70;;;;;;5040595;28;20084;-53
2022/01/15 00:25:34;;;;;;;7.25;6.05;;;21.80;32.80;;;;;;5049179;28;20529;-51
2022/01/15 00:28:02;;;;;;;6.97;6.20;;;21.80;32.80;;;;;;5028661;28;20096;-54
2022/01/15 00:30:29;;;;;;;7.47;6.05;;;21.80;32.80;;;;;;5050399;28;20030;-54
2022/01/15 00:32:54;;;;;;;7.53;6.00;;;21.80;32.80;;;;;;5045730;28;20028;-55
2022/01/15 00:35:23;;;;;;;6.80;5.72;;;21.80;32.80;;;;;;5046151;28;20029;-54
2022/01/15 00:37:49;;;;;;;6.45;5.50;;;21.80;32.80;;;;;;5039952;28;20029;-51
2022/01/15 00:40:17;;;;;;;6.35;5.68;;;21.80;32.80;;;;;;5038831;28;20032;-56
2022/01/15 00:42:44;;;;;;;6.55;5.68;;;21.80;32.80;;;;;;5039633;28;20029;-50
2022/01/15 00:45:14;;;;;;;6.45;5.65;;;21.80;32.80;;;;;;5055347;28;20131;-51
2022/01/15 00:47:41;;;;;;;6.90;5.95;;;21.80;32.80;;;;;;5052340;28;20084;-54
2022/01/15 00:50:08;;;;;;;7.15;5.70;;;21.80;32.80;;;;;;5051914;28;20028;-54
2022/01/15 00:52:34;;;;;;;7.43;6.38;;;21.80;32.80;;;;;;5049112;28;20043;-50
2022/01/15 00:55:00;;;;;;;5.72;5.03;;;21.80;32.80;;;;;;5051601;28;20096;-47
2022/01/15 00:57:26;;;;;;;6.78;5.78;;;21.80;32.80;;;;;;5049791;28;20511;-49
2022/01/15 00:59:51;;;;;;;7.07;5.93;;;21.80;32.80;;;;;;5040503;28;20108;-49
2022/01/15 01:02:17;;;;;;;7.55;6.05;;;21.80;32.80;;;;;;5049185;28;20049;-49
2022/01/15 01:04:43;;;;;;;6.18;5.22;;;21.70;32.80;;;;;;5043718;28;20313;-45
2022/01/15 01:07:10;;;;;;;6.85;5.45;;;21.70;32.80;;;;;;5048107;28;20024;-50
2022/01/15 01:10:47;;;;;;;6.00;5.32;;;21.70;32.80;;;;;;5051125;28;20037;-54
2022/01/15 01:13:16;;;;;;;6.10;5.07;;;21.70;32.80;;;;;;5037789;28;20441;-52
2022/01/15 01:23:24;;;;;;;;;;;21.70;32.80;;;;;;5046371;28;20091;-54
2022/01/15 01:25:55;;;;;;;6.10;4.80;;;21.70;32.80;;;;;;5047717;28;20187;-52
2022/01/15 01:28:28;;;;;;;6.22;5.05;;;21.60;32.80;;;;;;5046252;28;20037;-51
2022/01/15 01:38:47;;;;;;;7.25;5.18;;;21.60;32.70;;;;;;5048192;28;20048;-54
2022/01/15 01:41:17;;;;;;;5.55;4.88;;;21.70;32.80;;;;;;5045039;28;20025;-53
2022/01/15 01:43:52;;;;;;;6.28;4.93;;;21.60;32.80;;;;;;5051192;28;20435;-52
2022/01/15 01:48:53;;;;;;;5.35;4.72;;;21.60;32.80;;;;;;5042936;28;20106;-52
2022/01/15 01:51:34;;;;;;;5.13;4.57;;;21.60;32.80;;;;;;5035974;28;20017;-50
2022/01/15 01:54:06;;;;;;;5.63;4.85;;;21.60;32.70;;;;;;5043685;28;20209;-48
2022/01/15 01:56:33;;;;;;;6.05;4.88;;;21.60;32.80;;;;;;5036716;28;20341;-47
2022/01/15 01:58:59;;;;;;;5.70;4.85;;;21.60;32.80;;;;;;5046160;28;20036;-49
2022/01/15 02:01:26;;;;;;;5.47;4.68;;;21.60;32.80;;;;;;5037052;28;20104;-51
2022/01/15 02:03:52;;;;;;;5.28;4.38;;;21.60;32.80;;;;;;5040404;28;20034;-50
2022/01/15 02:06:19;;;;;;;5.38;4.63;;;21.60;32.80;;;;;;5045802;28;20515;-52
2022/01/15 02:08:47;;;;;;;4.95;4.30;;;21.60;32.80;;;;;;5039648;28;20040;-52
2022/01/15 02:11:13;;;;;;;6.85;4.47;;;21.60;32.80;;;;;;5044395;28;20045;-51
2022/01/15 02:13:41;;;;;;;5.00;4.47;;;21.60;32.80;;;;;;5042667;28;20025;-49
2022/01/15 02:16:07;;;;;;;4.75;4.15;;;21.60;32.80;;;;;;5040248;28;20048;-56
2022/01/15 02:18:35;;;;;;;5.03;4.18;;;21.60;32.80;;;;;;5044711;28;20421;-49
2022/01/15 02:23:44;;;;;;;4.30;3.90;;;21.60;32.70;;;;;;5048676;28;20176;-53
2022/01/15 02:26:14;;;;;;;4.57;3.67;;;21.60;32.70;;;;;;5046689;28;20435;-53
2022/01/15 02:28:43;;;;;;;4.25;3.70;;;21.60;32.70;;;;;;5051791;28;20028;-53
2022/01/15 02:31:14;;;;;;;4.05;3.60;;;21.60;32.70;;;;;;5044855;28;20024;-50
2022/01/15 02:33:42;;;;;;;4.70;3.65;;;21.50;32.70;;;;;;5050243;28;20060;-54
2022/01/15 02:36:14;;;;;;;5.20;4.22;;;21.50;32.70;;;;;;5043035;28;20094;-56
2022/01/15 02:38:41;;;;;;;4.63;3.55;;;21.50;32.70;;;;;;5049377;28;20029;-49
2022/01/15 02:41:07;;;;;;;4.15;3.65;;;21.50;32.60;;;;;;5039635;28;20021;-50
2022/01/15 02:43:34;;;;;;;4.07;3.42;;;21.50;32.60;;;;;;5036276;28;20025;-51
2022/01/15 02:46:18;;;;;;;4.22;3.60;;;21.50;32.60;;;;;;5048605;28;20056;-53
2022/01/15 02:48:48;;;;;;;;;;;21.50;32.60;;;;;;5044012;28;20496;-49
2022/01/15 02:51:15;;;;;;;3.72;3.10;;;21.50;32.60;;;;;;5049801;28;19947;-55
2022/01/15 02:53:42;;;;;;;3.83;3.38;;;21.50;32.70;;;;;;5047450;28;20379;-53
2022/01/15 02:56:08;;;;;;;3.88;3.40;;;21.50;32.60;;;;;;5035921;28;20100;-54
2022/01/15 02:58:34;;;;;;;4.60;3.25;;;21.50;32.60;;;;;;5043120;28;20033;-50
2022/01/15 03:01:00;;;;;;;3.83;2.78;;;21.50;32.60;;;;;;5022959;28;20025;-53
2022/01/15 03:03:25;;;;;;;3.58;2.97;;;21.40;32.50;;;;;;5039745;28;20516;-49
2022/01/15 03:05:51;;;;;;;3.15;2.85;;;21.40;32.50;;;;;;5040738;28;20021;-51
2022/01/15 03:08:17;;;;;;;3.45;3.00;;;21.40;32.50;;;;;;5041974;28;20090;-49
2022/01/15 03:10:42;;;;;;;3.17;2.55;;;21.50;32.60;;;;;;5045969;28;20040;-53
2022/01/15 03:13:13;;;;;;;3.45;2.85;;;21.40;32.50;;;;;;5038834;28;20017;-53
2022/01/15 03:15:40;;;;;;;3.35;2.67;;;21.40;32.50;;;;;;5042771;28;20033;-52
2022/01/15 03:18:07;;;;;;;3.45;2.60;;;21.40;32.50;;;;;;5051125;28;20021;-45
2022/01/15 03:20:32;;;;;;;3.30;2.67;;;21.40;32.50;;;;;;5050728;28;20490;-49
2022/01/15 03:22:58;;;;;;;3.17;2.60;;;21.40;32.50;;;;;;5036174;28;20024;-52
2022/01/15 03:25:24;;;;;;;3.10;2.70;;;21.40;32.50;;;;;;5039689;28;20037;-56
2022/01/15 03:27:50;;;;;;;3.55;2.70;;;21.40;32.50;;;;;;5038723;28;20475;-53
2022/01/15 03:30:16;;;;;;;3.75;2.83;;;21.40;32.50;;;;;;5037886;28;20021;-55
2022/01/15 03:32:45;;;;;;;2.85;2.20;;;21.40;32.50;;;;;;5051358;28;20027;-52
2022/01/15 03:35:14;;;;;;;3.70;2.80;;;21.40;32.50;;;;;;5035189;28;20445;-53
2022/01/15 03:37:40;;;;;;;3.47;2.72;;;21.40;32.50;;;;;;5051597;28;20033;-52
2022/01/15 03:40:09;;;;;;;3.38;2.60;;;21.40;32.50;;;;;;5036521;28;20083;-52
2022/01/15 03:42:34;;;;;;;3.28;2.28;;;21.40;32.50;;;;;;5055644;28;20036;-56
2022/01/15 03:45:00;;;;;;;4.38;2.78;;;21.40;32.50;;;;;;5052783;28;20029;-53
2022/01/15 03:47:26;;;;;;;3.83;2.85;;;21.40;32.50;;;;;;5043416;28;20094;-55
2022/01/15 03:49:52;;;;;;;3.03;2.45;;;21.40;32.50;;;;;;5035526;28;20357;-54
2022/01/15 03:52:18;;;;;;;3.30;2.67;;;21.40;32.50;;;;;;5023854;28;20048;-56
2022/01/15 03:54:43;;;;;;;4.10;3.22;;;21.30;32.40;;;;;;5048018;28;20453;-51
2022/01/15 03:57:09;;;;;;;3.08;2.60;;;21.40;32.50;;;;;;5047848;28;20357;-54
2022/01/15 03:59:35;;;;;;;3.22;2.20;;;21.40;33.10;;;;;;5052534;28;20021;-54
2022/01/15 04:02:01;;;;;;;2.95;2.60;;;21.40;32.50;;;;;;5054281;28;20021;-57
2022/01/15 04:04:27;;;;;;;2.67;2.30;;;21.40;32.50;;;;;;5052665;28;20470;-53
2022/01/15 04:06:52;;;;;;;4.15;2.63;;;21.40;32.50;;;;;;5044381;28;20018;-54
2022/01/15 04:09:18;;;;;;;2.97;2.40;;;21.30;32.40;;;;;;5043791;28;20349;-52
2022/01/15 04:11:45;;;;;;;3.45;2.50;;;21.30;32.40;;;;;;5047326;28;20043;-50
2022/01/15 04:14:11;;;;;;;3.88;2.35;;;21.30;32.40;;;;;;5055701;28;20380;-52
2022/01/15 04:16:37;;;;;;;3.15;2.22;;;21.40;32.50;;;;;;5044391;28;20116;-51
2022/01/15 04:19:07;;;;;;;2.83;2.25;;;21.30;32.40;;;;;;5052453;28;20036;-51
2022/01/15 04:21:33;;;;;;;3.00;2.28;;;21.30;32.40;;;;;;5044652;28;20048;-53
2022/01/15 04:23:59;;;;;;;2.90;2.20;;;21.30;32.40;;;;;;5052198;28;20510;-56
2022/01/15 04:26:27;;;;;;;2.80;2.05;;;21.30;32.40;;;;;;5043887;28;20044;-51
2022/01/15 04:28:55;;;;;;;2.53;2.10;;;21.30;32.40;;;;;;5045632;28;20110;-49
2022/01/15 04:31:21;;;;;;;2.65;2.05;;;21.30;32.40;;;;;;5050075;28;20076;-49
2022/01/15 04:33:47;;;;;;;2.38;1.92;;;21.30;32.40;;;;;;5044015;28;20029;-51
2022/01/15 04:36:13;;;;;;;2.67;2.13;;;21.30;32.40;;;;;;5053190;28;20440;-48
2022/01/15 04:38:40;;;;;;;2.25;2.00;;;21.30;32.40;;;;;;5050929;28;20016;-51
2022/01/15 04:41:08;;;;;;;1.70;1.50;;;21.30;32.40;;;;;;5053194;28;20025;-50
2022/01/15 04:43:35;;;;;;;2.40;2.00;;;21.30;32.40;;;;;;5055279;28;20466;-47
2022/01/15 04:46:01;;;;;;;1.83;1.58;;;21.30;32.40;;;;;;5052220;28;21726;-54
2022/01/15 04:48:27;;;;;;;1.90;1.73;;;21.30;32.30;;;;;;5038502;28;20083;-54
2022/01/15 04:50:53;;;;;;;2.95;2.10;;;21.30;32.40;;;;;;5042607;28;20018;-51
2022/01/15 04:53:19;;;;;;;2.20;1.58;;;21.30;32.40;;;;;;5052169;28;20078;-55
2022/01/15 04:55:45;;;;;;;2.20;1.70;;;21.30;32.30;;;;;;5043325;28;20025;-50
2022/01/15 04:58:11;;;;;;;1.83;1.55;;;21.20;32.30;;;;;;5045758;28;20041;-54
2022/01/15 05:00:37;;;;;;;2.17;1.75;;;21.20;32.30;;;;;;5043993;28;20429;-52
2022/01/15 05:03:04;;;;;;;1.65;1.50;;;21.20;32.30;;;;;;5048870;28;20025;-50
2022/01/15 05:05:31;;;;;;;2.40;1.80;;;21.20;32.30;;;;;;5045307;28;20053;-52
2022/01/15 05:07:57;;;;;;;1.67;1.58;;;21.20;32.30;;;;;;5045716;28;20098;-54
2022/01/15 05:10:27;;;;;;;2.03;1.70;;;21.20;32.30;;;;;;5043930;28;20040;-52
2022/01/15 05:12:55;;;;;;;2.20;1.70;;;21.20;32.30;;;;;;5046079;28;20119;-52
2022/01/15 05:15:22;;;;;;;2.30;1.90;;;21.20;32.30;;;;;;5042071;28;20049;-54
2022/01/15 05:17:48;;;;;;;1.90;1.70;;;21.20;32.30;;;;;;5042798;28;20028;-54
2022/01/15 05:20:19;;;;;;;3.08;1.88;;;21.20;32.40;;;;;;5050798;28;20432;-51
2022/01/15 05:22:49;;;;;;;2.60;2.08;;;21.20;32.40;;;;;;5045043;28;20025;-53
2022/01/15 05:25:18;;;;;;;2.90;1.95;;;21.20;32.40;;;;;;5042041;28;20037;-49
2022/01/15 05:27:46;;;;;;;2.25;2.00;;;21.20;32.40;;;;;;5037809;28;20459;-52
2022/01/15 05:30:13;;;;;;;2.67;1.85;;;21.20;32.40;;;;;;5037546;28;20459;-53
2022/01/15 05:32:39;;;;;;;2.15;1.77;;;21.20;32.40;;;;;;5043543;28;20082;-49
2022/01/15 05:35:06;;;;;;;2.30;1.90;;;21.20;32.40;;;;;;5048811;28;20112;-52
2022/01/15 05:37:31;;;;;;;2.30;1.90;;;21.20;32.50;;;;;;5050732;28;20024;-53
2022/01/15 05:39:57;;;;;;;3.70;2.25;;;21.20;32.50;;;;;;5053973;28;20013;-51
2022/01/15 05:42:23;;;;;;;2.85;2.05;;;21.10;32.40;;;;;;5049523;28;20021;-49
2022/01/15 05:44:49;;;;;;;2.17;1.77;;;21.10;32.40;;;;;;5035983;28;20433;-50
2022/01/15 05:47:15;;;;;;;2.72;2.30;;;21.10;32.50;;;;;;5048621;28;20044;-52
2022/01/15 05:49:41;;;;;;;2.05;1.77;;;21.10;32.40;;;;;;5052787;28;20128;-51
2022/01/15 05:52:07;;;;;;;2.38;1.90;;;21.10;32.50;;;;;;5040114;28;20036;-56
2022/01/15 05:54:32;;;;;;;2.38;1.63;;;21.10;32.50;;;;;;5041987;28;20095;-53
2022/01/15 05:56:58;;;;;;;1.98;1.75;;;21.10;32.50;;;;;;5032296;28;20045;-49
2022/01/15 05:59:24;;;;;;;1.70;1.50;;;21.10;32.50;;;;;;5046972;28;20447;-52
2022/01/15 06:01:50;;;;;;;1.90;1.70;;;21.10;32.50;;;;;;5048685;28;20048;-49
2022/01/15 06:04:16;;;;;;;2.38;1.90;;;21.10;32.50;;;;;;5044643;28;20082;-55
2022/01/15 06:06:42;;;;;;;1.88;1.75;;;21.10;32.50;;;;;;5042589;28;20021;-57
2022/01/15 06:09:07;;;;;;;1.92;1.75;;;21.10;32.50;;;;;;5052088;28;20039;-51
2022/01/15 06:11:37;;;;;;;1.58;1.45;;;21.10;32.50;;;;;;5046928;28;20013;-51
2022/01/15 06:14:03;;;;;;;2.40;1.88;;;21.10;32.50;;;;;;5047047;28;20309;-47
2022/01/15 06:16:28;;;;;;;2.25;1.80;;;21.10;32.50;;;;;;5036573;28;20021;-51
2022/01/15 06:18:54;;;;;;;2.30;1.90;;;21.10;32.50;;;;;;5050087;28;20037;-55
2022/01/15 06:21:20;;;;;;;2.10;1.73;;;21.10;32.50;;;;;;5046355;28;20039;-50
2022/01/15 06:23:46;;;;;;;2.08;1.88;;;21.10;32.50;;;;;;5047741;28;20467;-55
2022/01/15 06:26:12;;;;;;;2.10;1.90;;;21.10;32.60;;;;;;5035860;28;20432;-54
2022/01/15 06:28:38;;;;;;;2.45;1.50;;;21.10;32.60;;;;;;5019950;28;20082;-52
2022/01/15 06:31:04;;;;;;;2.08;1.77;;;21.10;32.60;;;;;;5044695;28;20020;-52
2022/01/15 06:33:30;;;;;;;2.05;1.58;;;21.00;32.50;;;;;;5052544;28;20392;-55
2022/01/15 06:35:56;;;;;;;1.83;1.60;;;21.00;32.50;;;;;;5039892;28;20032;-52
2022/01/15 06:38:22;;;;;;;1.90;1.70;;;21.00;32.60;;;;;;5034986;28;20040;-55
2022/01/15 06:40:47;;;;;;;2.13;1.77;;;21.00;32.60;;;;;;5023139;28;20420;-54
2022/01/15 06:43:13;;;;;;;2.45;1.70;;;21.00;32.60;;;;;;5051432;28;20391;-55
2022/01/15 06:45:39;;;;;;;1.73;1.30;;;21.00;32.60;;;;;;5037953;28;20064;-55
2022/01/15 06:48:05;;;;;;;1.60;1.45;;;21.00;32.60;;;;;;5045984;28;20412;-54
2022/01/15 06:50:31;;;;;;;2.13;1.75;;;21.00;32.60;;;;;;5040321;28;20055;-56
2022/01/15 06:52:57;;;;;;;2.05;1.65;;;21.00;32.60;;;;;;5017992;28;20116;-49
2022/01/15 06:55:23;;;;;;;1.88;1.63;;;21.00;32.60;;;;;;5045250;28;20025;-56
2022/01/15 06:57:49;;;;;;;1.92;1.70;;;21.00;32.70;;;;;;5048278;28;20048;-54
2022/01/15 07:00:16;;;;;;;2.13;1.73;;;21.00;32.70;;;;;;5042374;28;20167;-55
2022/01/15 07:02:42;;;;;;;2.30;1.75;;;21.00;32.70;;;;;;5036265;28;20025;-56
2022/01/15 07:05:09;;;;;;;1.92;1.67;;;21.00;33.30;;;;;;5049484;28;20364;-56
2022/01/15 07:07:40;;;;;;;2.03;1.80;;;21.00;32.70;;;;;;5046734;28;20021;-54
2022/01/15 07:10:07;;;;;;;1.65;1.55;;;21.00;32.70;;;;;;5039373;28;20151;-56
2022/01/15 07:12:33;;;;;;;2.25;1.90;;;21.00;32.70;;;;;;5041550;28;20035;-56
2022/01/15 07:14:59;;;;;;;1.73;1.63;;;21.00;32.80;;;;;;5043506;28;20025;-56
2022/01/15 07:17:25;;;;;;;2.00;1.80;;;21.00;32.80;;;;;;5050511;28;20032;-56
2022/01/15 07:19:51;;;;;;;1.77;1.63;;;21.00;32.80;;;;;;5046765;28;20036;-52
2022/01/15 07:22:17;;;;;;;2.47;1.98;;;21.00;32.80;;;;;;5038638;28;20444;-48
2022/01/15 07:24:42;;;;;;;2.10;1.77;;;21.00;32.80;;;;;;5044369;28;20099;-46
2022/01/15 07:27:08;;;;;;;2.13;1.67;;;20.90;32.90;;;;;;5053610;28;20032;-52
2022/01/15 07:29:37;;;;;;;2.35;1.85;;;21.00;33.10;;;;;;5051366;28;20352;-53
2022/01/15 07:32:04;;;;;;;1.80;1.50;;;21.00;33.10;;;;;;5041951;28;20041;-53
2022/01/15 07:34:29;;;;;;;1.88;1.58;;;21.00;33.10;;;;;;5039494;28;20021;-57
2022/01/15 07:36:59;;;;;;;2.47;1.85;;;21.00;33.00;;;;;;5034235;28;20029;-55
2022/01/15 07:39:26;;;;;;;1.98;1.75;;;21.00;32.90;;;;;;5036806;28;20440;-50
2022/01/15 07:41:55;;;;;;;2.90;2.35;;;21.00;33.00;;;;;;5040194;28;20399;-54
2022/01/15 07:44:21;;;;;;;2.30;1.80;;;21.00;33.00;;;;;;5048476;28;20029;-57
2022/01/15 07:46:46;;;;;;;2.58;1.65;;;21.00;33.20;;;;;;5040802;28;20428;-57
2022/01/15 07:49:12;;;;;;;2.35;1.90;;;21.00;33.30;;;;;;5046579;28;20041;-57
2022/01/15 07:51:38;;;;;;;2.58;1.63;;;21.00;33.40;;;;;;5050779;28;20032;-58
2022/01/15 07:54:04;;;;;;;2.00;1.65;;;21.10;33.50;;;;;;5035770;28;20385;-54
2022/01/15 07:56:30;;;;;;;1.70;1.40;;;21.20;33.60;;;;;;5035332;28;20100;-55
2022/01/15 07:58:56;;;;;;;2.15;1.75;;;21.20;33.60;;;;;;5048411;28;20025;-52
2022/01/15 08:01:22;;;;;;;2.65;1.92;;;21.30;33.80;;;;;;5047636;28;20036;-54
2022/01/15 08:03:48;;;;;;;2.08;1.75;;;21.40;33.80;;;;;;5024640;28;20036;-58
2022/01/15 08:06:15;;;;;;;4.10;1.50;;;21.50;34.40;;;;;;5046111;28;20092;-50
2022/01/15 08:08:41;;;;;;;2.35;1.77;;;21.70;33.70;;;;;;5044560;28;20051;-56
2022/01/15 08:11:07;;;;;;;2.53;1.92;;;21.70;33.50;;;;;;5045283;28;20024;-51
2022/01/15 08:13:33;;;;;;;1.90;1.65;;;21.80;33.30;;;;;;5044457;28;20028;-51
2022/01/15 08:16:01;;;;;;;1.85;1.63;;;21.90;33.20;;;;;;5037479;28;20022;-52
2022/01/15 08:18:28;;;;;;;1.70;1.50;;;22.00;33.10;;;;;;5049128;28;20332;-49
2022/01/15 08:20:55;;;;;;;2.67;1.80;;;22.10;33.00;;;;;;5051934;28;20428;-49
2022/01/15 08:23:21;;;;;;;2.17;1.98;;;22.20;32.80;;;;;;5051259;28;20048;-53
2022/01/15 08:25:47;;;;;;;2.25;1.95;;;22.30;32.80;;;;;;5047758;28;20025;-51
2022/01/15 08:28:13;;;;;;;2.60;1.77;;;22.40;32.70;;;;;;5047893;28;20037;-52
2022/01/15 08:30:39;;;;;;;2.15;1.83;;;22.50;32.60;;;;;;5045113;28;20445;-52
2022/01/15 08:33:04;;;;;;;2.58;1.95;;;22.50;32.50;;;;;;5055982;28;20104;-50
2022/01/15 08:35:30;;;;;;;2.33;2.00;;;22.60;32.40;;;;;;5047564;28;20025;-51
2022/01/15 08:37:58;;;;;;;2.72;2.42;;;22.60;32.30;;;;;;5056827;28;20021;-53
2022/01/15 08:40:24;;;;;;;3.35;2.42;;;22.70;32.30;;;;;;5040257;28;20059;-57
2022/01/15 08:42:50;;;;;;;3.00;2.30;;;22.80;32.20;;;;;;5049998;28;20493;-55
2022/01/15 08:45:16;;;;;;;3.13;2.58;;;22.90;32.20;;;;;;5044265;28;20103;-52
2022/01/15 08:47:43;;;;;;;3.58;2.60;;;23.00;32.10;;;;;;5048670;28;20043;-52
2022/01/15 08:50:11;;;;;;;4.68;3.53;;;23.00;32.00;;;;;;5028840;28;20356;-55
2022/01/15 08:52:39;;;;;;;6.03;5.00;;;23.10;32.00;;;;;;5020296;28;20532;-57
2022/01/15 08:55:06;;;;;;;8.45;6.13;;;23.10;31.90;;;;;;5040756;28;20063;-52
2022/01/15 08:57:33;;;;;;;9.38;7.57;;;23.10;31.90;;;;;;5050763;28;20037;-53
2022/01/15 08:59:59;;;;;;;11.80;8.45;;;23.20;31.90;;;;;;5052436;28;20037;-52
2022/01/15 09:02:25;;;;;;;12.23;9.90;;;23.20;31.90;;;;;;5041326;28;20021;-54
2022/01/15 09:04:55;;;;;;;11.90;9.63;;;23.30;31.90;;;;;;5051973;28;20313;-55
2022/01/15 09:07:22;;;;;;;11.30;9.30;;;23.40;31.90;;;;;;5052074;28;20317;-56
2022/01/15 09:09:48;;;;;;;11.13;9.40;;;23.40;31.90;;;;;;5051335;28;20047;-52
2022/01/15 09:12:15;;;;;;;13.23;10.60;;;23.40;31.80;;;;;;5050964;28;20029;-56
2022/01/15 09:14:41;;;;;;;16.67;12.82;;;23.50;31.90;;;;;;5043043;28;20437;-55
2022/01/15 09:17:07;;;;;;;19.00;14.15;;;23.50;31.90;;;;;;5052038;28;20027;-56
2022/01/15 09:19:33;;;;;;;20.30;15.63;;;23.60;32.00;;;;;;5040748;28;20025;-54
2022/01/15 09:21:59;;;;;;;21.50;17.17;;;23.60;32.00;;;;;;5037681;28;20029;-51
2022/01/15 09:24:25;;;;;;;22.48;18.65;;;23.60;32.00;;;;;;5038979;28;20017;-49
2022/01/15 09:32:07;;;;;;;19.42;16.23;;;23.70;31.70;;;;;;5048415;28;20021;-49
2022/01/15 09:34:34;;;;;;;16.48;13.90;;;23.80;31.70;;;;;;5042718;28;20022;-52
2022/01/15 09:37:02;;;;;;;15.65;13.18;;;23.70;31.50;;;;;;5046686;28;20037;-54
2022/01/15 09:39:27;;;;;;;13.93;12.43;;;23.80;31.30;;;;;;5039645;28;20057;-49
2022/01/15 09:41:55;;;;;;;13.18;11.23;;;23.80;31.20;;;;;;5046221;28;20056;-53
2022/01/15 09:44:22;;;;;;;13.10;10.80;;;23.90;31.20;;;;;;5038175;28;20026;-52
2022/01/15 09:46:52;;;;;;;12.18;9.95;;;23.90;31.10;;;;;;5043097;28;20021;-53
2022/01/15 09:49:22;;;;;;;12.02;9.90;;;23.90;31.00;;;;;;5036811;28;20033;-52
2022/01/15 09:51:47;;;;;;;9.75;8.73;;;24.00;30.90;;;;;;5044270;28;20029;-54
2022/01/15 09:54:16;;;;;;;12.00;10.02;;;24.00;30.80;;;;;;5041247;28;20017;-51
2022/01/15 09:56:43;;;;;;;17.75;14.45;;;24.00;30.80;;;;;;5033537;28;20349;-52
2022/01/15 09:59:09;;;;;;;21.67;17.52;;;23.90;31.00;;;;;;5042208;28;20032;-52
2022/01/15 10:01:35;;;;;;;27.92;20.80;;;23.90;31.30;;;;;;5039057;28;20028;-54
2022/01/15 10:04:01;;;;;;;25.33;22.50;;;23.90;31.40;;;;;;5044494;28;20104;-53
2022/01/15 10:06:27;;;;;;;29.73;24.58;;;23.90;31.60;;;;;;5036886;28;20040;-55
2022/01/15 10:09:03;;;;;;;32.33;25.63;;;23.90;31.70;;;;;;5021168;28;20041;-55
2022/01/15 10:11:46;;;;;;;34.90;28.35;;;23.90;31.80;;;;;;5038683;28;20063;-54
2022/01/15 10:14:35;;;;;;;36.00;30.35;;;23.90;31.80;;;;;;5037215;28;20029;-52
2022/01/15 10:17:22;;;;;;;38.08;31.15;;;23.90;31.90;;;;;;5051711;28;20035;-51
2022/01/15 10:19:48;;;;;;;38.58;31.65;;;23.90;32.00;;;;;;5037296;28;20108;-59
2022/01/15 10:22:23;;;;;;;45.05;36.03;;;23.90;32.10;;;;;;5041802;28;20013;-58
2022/01/15 10:24:59;;;;;;;;;;;23.90;32.20;;;;;;5037191;28;20033;-56
2022/01/15 10:27:31;;;;;;;46.45;35.42;;;23.80;32.20;;;;;;5043679;28;19905;-61
2022/01/15 10:30:04;;;;;;;44.92;37.72;;;23.80;32.50;;;;;;5022808;28;20095;-56
2022/01/15 10:32:34;;;;;;;48.83;41.60;;;23.80;32.50;;;;;;5039628;28;20108;-59
2022/01/15 10:35:00;;;;;;;47.70;41.67;;;23.80;32.70;;;;;;5018929;28;20276;-58
2022/01/15 10:37:37;;;;;;;50.97;42.85;;;23.80;32.80;;;;;;5038854;28;20017;-53
2022/01/15 10:40:11;;;;;;;51.35;42.05;;;23.80;32.90;;;;;;5047596;28;20030;-58
2022/01/15 10:42:38;;;;;;;55.20;43.13;;;23.90;33.00;;;;;;5041002;28;20377;-59
2022/01/15 10:45:16;;;;;;;54.03;43.83;;;23.90;33.00;;;;;;5053060;28;20021;-56
2022/01/15 10:47:49;;;;;;;52.55;44.45;;;23.90;33.10;;;;;;5048227;28;20355;-59
2022/01/15 10:50:22;;;;;;;50.78;42.63;;;23.90;33.10;;;;;;5034818;28;20044;-51
2022/01/15 10:52:48;;;;;;;53.10;42.90;;;23.90;33.10;;;;;;5050137;28;20025;-57
2022/01/15 10:55:17;;;;;;;52.17;42.60;;;23.90;32.90;;;;;;5042010;28;20306;-51
2022/01/15 10:57:46;;;;;;;51.60;44.30;;;23.90;32.90;;;;;;5041281;28;20058;-57
2022/01/15 11:00:52;;;;;;;53.25;43.42;;;23.90;33.30;;;;;;5047742;28;20018;-57
2022/01/15 11:03:18;;;;;;;52.35;43.15;;;23.90;33.00;;;;;;5009766;28;20037;-51
2022/01/15 11:05:49;;;;;;;48.95;43.47;;;23.80;33.00;;;;;;5039621;28;20392;-53
2022/01/15 11:08:17;;;;;;;54.47;43.22;;;23.80;33.00;;;;;;5045139;28;20421;-52
2022/01/15 11:10:46;;;;;;;51.33;42.20;;;23.80;33.00;;;;;;5042056;28;20021;-48
2022/01/15 11:13:15;;;;;;;55.00;45.25;;;23.80;33.10;;;;;;5043474;28;20027;-53
2022/01/15 11:15:46;;;;;;;54.72;45.92;;;23.80;33.20;;;;;;5041139;28;20032;-54
2022/01/15 11:18:21;;;;;;;56.03;47.40;;;23.80;33.40;;;;;;5046573;28;20014;-50
2022/01/15 11:20:52;;;;;;;56.28;47.72;;;23.80;33.50;;;;;;5045261;28;20029;-50
2022/01/15 11:23:22;;;;;;;49.47;42.55;;;23.80;33.50;;;;;;5053297;28;20289;-53
2022/01/15 11:25:52;;;;;;;51.40;42.20;;;23.80;33.90;;;;;;5054651;28;20059;-49
2022/01/15 11:28:20;;;;;;;45.03;36.70;;;23.80;33.10;;;;;;5054176;28;20069;-50
2022/01/15 11:30:47;;;;;;;43.13;34.63;;;23.80;33.00;;;;;;5054699;28;20082;-53
2022/01/15 11:33:18;;;;;;;38.78;33.28;;;23.70;32.80;;;;;;5054466;28;20104;-55
2022/01/15 11:35:45;;;;;;;35.55;30.88;;;23.80;32.70;;;;;;5054760;28;20037;-52
2022/01/15 11:38:33;;;;;;;32.03;28.08;;;23.80;32.50;;;;;;5054337;28;20024;-51
2022/01/15 11:40:59;;;;;;;29.35;25.98;;;23.80;32.40;;;;;;5054307;28;20436;-49
2022/01/15 11:43:25;;;;;;;31.70;26.38;;;23.80;32.30;;;;;;5054320;28;20086;-49
2022/01/15 11:45:55;;;;;;;27.30;24.33;;;23.80;32.20;;;;;;5054612;28;20090;-50
2022/01/15 11:48:23;;;;;;;26.70;23.65;;;23.80;32.10;;;;;;5053562;28;20041;-55
2022/01/15 11:51:17;;;;;;;25.13;21.95;;;23.80;32.00;;;;;;5054530;28;20025;-52
2022/01/15 11:54:00;;;;;;;24.45;21.45;;;23.80;31.90;;;;;;5042320;28;20041;-51
2022/01/15 11:56:37;;;;;;;32.00;26.60;;;23.80;31.80;;;;;;5038297;28;20028;-52
2022/01/15 11:59:32;;;;;;;49.63;38.63;;;23.80;32.00;;;;;;5053493;28;20458;-53
2022/01/15 12:02:02;;;;;;;;;;;23.80;32.30;;;;;;5007650;28;20081;-55
2022/01/15 12:04:34;;;;;;;60.78;49.88;;;23.70;32.50;;;;;;5053864;28;19947;-50
2022/01/15 12:07:05;;;;;;;66.70;54.97;;;23.80;33.10;;;;;;5035509;28;20021;-51
2022/01/15 12:09:46;;;;;;;65.25;54.22;;;23.80;33.50;;;;;;5041735;28;20040;-52
2022/01/15 12:12:21;;;;;;;67.03;57.00;;;23.90;33.70;;;;;;5053314;28;20044;-49
2022/01/15 12:15:05;;;;;;;70.35;58.30;;;23.90;34.00;;;;;;5056272;28;20041;-47
2022/01/15 12:17:43;;;;;;;66.90;56.30;;;23.90;34.20;;;;;;5056214;28;20159;-52
2022/01/15 12:20:20;;;;;;;69.18;57.25;;;23.90;34.30;;;;;;5053096;28;20024;-50
2022/01/15 12:22:53;;;;;;;64.43;55.55;;;24.00;35.00;;;;;;5056254;28;20025;-49
2022/01/15 12:25:18;;;;;;;67.28;56.97;;;24.00;34.40;;;;;;5056845;28;20025;-53
2022/01/15 12:27:56;;;;;;;66.78;54.60;;;24.00;34.50;;;;;;5057067;28;20032;-52
2022/01/15 12:30:24;;;;;;;63.53;54.33;;;24.10;34.50;;;;;;5055702;28;20041;-49
2022/01/15 12:32:53;;;;;;;66.05;54.72;;;24.10;34.50;;;;;;5052737;28;20458;-47
2022/01/15 12:35:25;;;;;;;60.00;53.45;;;24.10;34.50;;;;;;5049225;28;20025;-57
2022/01/15 12:37:57;;;;;;;61.85;53.30;;;24.10;34.50;;;;;;5056695;28;20082;-57
2022/01/15 12:40:29;;;;;;;57.83;51.55;;;24.20;34.50;;;;;;5052733;28;20037;-53
2022/01/15 12:43:10;;;;;;;58.17;49.22;;;24.20;34.30;;;;;;5039111;28;20025;-50
2022/01/15 12:45:38;;;;;;;55.10;47.38;;;24.20;34.20;;;;;;5038531;28;20021;-50
2022/01/15 12:48:07;;;;;;;48.72;43.20;;;24.20;34.10;;;;;;5057497;28;20071;-44
2022/01/15 12:50:51;;;;;;;48.35;42.42;;;24.20;33.90;;;;;;5051624;28;20029;-45
2022/01/15 12:53:20;;;;;;;47.42;41.75;;;24.30;33.90;;;;;;5051618;28;20335;-49
2022/01/15 12:55:46;;;;;;;48.08;41.28;;;24.30;33.80;;;;;;5050933;28;20032;-45
2022/01/15 12:58:16;;;;;;;46.20;38.90;;;24.30;33.70;;;;;;5056957;28;20045;-47
2022/01/15 13:00:45;;;;;;;44.50;39.28;;;24.30;33.60;;;;;;5054850;28;20020;-52
2022/01/15 13:03:15;;;;;;;44.63;39.95;;;24.30;33.50;;;;;;5053443;28;20111;-45
2022/01/15 13:05:52;;;;;;;43.60;38.88;;;24.30;33.40;;;;;;5052249;28;20372;-54
2022/01/15 13:08:24;;;;;;;43.63;38.42;;;24.40;33.40;;;;;;5055326;28;20025;-44
2022/01/15 13:11:03;;;;;;;40.80;36.13;;;24.30;33.20;;;;;;5054298;28;20028;-48
2022/01/15 13:13:33;;;;;;;45.03;36.70;;;24.40;33.40;;;;;;5045903;28;20028;-46